createdAt,value
2023-01-09T00:01:44.373Z,6.09
2023-01-09T00:04:46.935Z,6.08
2023-01-09T00:07:49.183Z,6.07
2023-01-09T00:10:51.796Z,6.12
2023-01-09T00:13:54.300Z,6.09
2023-01-09T00:16:57.097Z,6.11
2023-01-09T00:19:59.631Z,6.12
2023-01-09T00:23:02.403Z,6.11
2023-01-09T00:26:06.368Z,6.14
2023-01-09T00:29:10.387Z,6.28
2023-01-09T00:32:12.768Z,6.49
2023-01-09T00:35:16.632Z,6.59
2023-01-09T00:38:18.888Z,6.60
2023-01-09T00:41:25.069Z,6.65
2023-01-09T00:44:32.045Z,6.72
2023-01-09T00:47:40.321Z,6.68
2023-01-09T00:50:43.852Z,6.61
2023-01-09T00:53:47.937Z,6.70
2023-01-09T00:56:50.575Z,6.66
2023-01-09T00:59:53.727Z,6.65
2023-01-09T01:02:56.086Z,6.62
2023-01-09T01:06:17.691Z,6.62
2023-01-09T01:09:20.098Z,6.60
2023-01-09T01:12:22.736Z,6.63
2023-01-09T01:15:29.348Z,6.61
2023-01-09T01:18:32.380Z,6.64
2023-01-09T01:21:35.112Z,6.67
2023-01-09T01:24:37.805Z,6.74
2023-01-09T01:27:40.227Z,6.78
2023-01-09T01:30:43.481Z,6.75
2023-01-09T01:33:46.049Z,6.70
2023-01-09T01:36:48.652Z,6.73
2023-01-09T01:39:51.809Z,6.65
2023-01-09T01:42:54.668Z,6.66
2023-01-09T01:45:57.058Z,6.71
2023-01-09T01:49:04.021Z,6.77
2023-01-09T01:52:06.489Z,6.84
2023-01-09T01:55:10.036Z,6.92
2023-01-09T01:58:14.255Z,6.97
2023-01-09T02:01:17.103Z,7.00
2023-01-09T02:04:20.246Z,7.03
2023-01-09T02:07:23.052Z,7.04
2023-01-09T02:10:25.776Z,7.06
2023-01-09T02:13:28.632Z,7.13
2023-01-09T02:16:47.980Z,7.14
2023-01-09T02:19:50.707Z,7.24
2023-01-09T02:22:58.817Z,7.27
2023-01-09T02:26:20.465Z,7.40
2023-01-09T02:29:22.781Z,7.50
2023-01-09T02:32:25.403Z,7.59
2023-01-09T02:35:42.910Z,7.73
2023-01-09T02:38:48.130Z,7.76
2023-01-09T02:41:59.307Z,7.78
2023-01-09T02:45:01.948Z,7.83
2023-01-09T02:48:04.607Z,7.84
2023-01-09T02:51:33.014Z,7.79
2023-01-09T02:54:53.400Z,7.77
2023-01-09T02:58:14.768Z,7.81
2023-01-09T03:01:40.659Z,7.84
2023-01-09T03:04:52.834Z,7.85
2023-01-09T03:07:58.872Z,7.82
2023-01-09T03:11:04.768Z,7.80
2023-01-09T03:14:11.568Z,7.78
2023-01-09T03:17:16.592Z,7.74
2023-01-09T03:20:22.224Z,7.66
2023-01-09T03:23:24.797Z,7.69
2023-01-09T03:26:29.461Z,7.69
2023-01-09T03:29:32.232Z,7.66
2023-01-09T03:32:34.662Z,7.61
2023-01-09T03:35:37.237Z,7.59
2023-01-09T03:38:40.373Z,7.55
2023-01-09T03:41:43.007Z,7.56
2023-01-09T03:44:45.445Z,7.56
2023-01-09T03:47:48.069Z,7.59
2023-01-09T03:50:54.436Z,7.62
2023-01-09T03:53:57.772Z,7.63
2023-01-09T03:57:00.044Z,7.59
2023-01-09T04:00:03.275Z,7.58
2023-01-09T04:03:15.453Z,7.63
2023-01-09T04:06:18.300Z,7.71
2023-01-09T04:09:20.604Z,7.78
2023-01-09T04:12:23.369Z,7.81
2023-01-09T04:15:25.758Z,7.78
2023-01-09T04:18:28.399Z,7.83
2023-01-09T04:21:31.119Z,7.83
2023-01-09T04:24:33.826Z,7.83
2023-01-09T04:27:36.272Z,7.81
2023-01-09T04:30:39.012Z,7.82
2023-01-09T04:33:41.476Z,7.78
2023-01-09T04:36:44.134Z,7.77
2023-01-09T04:39:46.642Z,7.76
2023-01-09T04:42:49.268Z,7.86
2023-01-09T04:45:51.783Z,7.80
2023-01-09T04:48:54.497Z,7.74
2023-01-09T04:51:56.975Z,7.66
2023-01-09T04:54:59.545Z,7.60
2023-01-09T04:58:01.866Z,7.52
2023-01-09T05:01:04.552Z,7.49
2023-01-09T05:04:07.071Z,7.46
2023-01-09T05:07:09.951Z,7.43
2023-01-09T05:10:12.484Z,7.46
2023-01-09T05:13:15.024Z,7.48
2023-01-09T05:16:17.720Z,7.45
2023-01-09T05:19:21.571Z,7.47
2023-01-09T05:22:24.009Z,7.44
2023-01-09T05:25:26.675Z,7.43
2023-01-09T05:28:29.085Z,7.49
2023-01-09T05:31:31.813Z,7.54
2023-01-09T05:34:34.773Z,7.50
2023-01-09T05:37:37.348Z,7.45
2023-01-09T05:40:40.679Z,7.43
2023-01-09T05:43:43.396Z,7.44
2023-01-09T05:46:45.768Z,7.43
2023-01-09T05:49:48.529Z,7.46
2023-01-09T05:52:50.862Z,7.44
2023-01-09T05:55:53.444Z,7.45
2023-01-09T05:58:55.924Z,7.47
2023-01-09T06:01:58.591Z,7.48
2023-01-09T06:05:03.311Z,7.42
2023-01-09T06:08:05.793Z,7.37
2023-01-09T06:11:08.543Z,7.26
2023-01-09T06:14:10.935Z,7.29
2023-01-09T06:17:13.620Z,7.29
2023-01-09T06:20:16.729Z,7.26
2023-01-09T06:23:19.386Z,7.43
2023-01-09T06:26:21.730Z,7.46
2023-01-09T06:29:24.541Z,7.45
2023-01-09T06:32:27.002Z,7.54
2023-01-09T06:35:29.673Z,7.58
2023-01-09T06:38:32.033Z,7.66
2023-01-09T06:41:34.680Z,7.75
2023-01-09T06:44:37.144Z,7.80
2023-01-09T06:47:40.409Z,7.71
2023-01-09T06:50:42.794Z,7.73
2023-01-09T06:53:45.499Z,7.78
2023-01-09T06:56:48.093Z,7.73
2023-01-09T06:59:50.707Z,7.70
2023-01-09T07:02:53.104Z,7.69
2023-01-09T07:05:55.792Z,7.61
2023-01-09T07:08:58.316Z,7.64
2023-01-09T07:12:02.433Z,7.66
2023-01-09T07:15:05.215Z,7.60
2023-01-09T07:18:07.914Z,7.62
2023-01-09T07:21:10.437Z,7.59
2023-01-09T07:24:13.141Z,7.57
2023-01-09T07:27:15.658Z,7.59
2023-01-09T07:30:18.389Z,7.57
2023-01-09T07:33:20.930Z,7.56
2023-01-09T07:36:23.672Z,7.64
2023-01-09T07:39:25.993Z,7.59
2023-01-09T07:42:28.744Z,7.65
2023-01-09T07:45:31.511Z,7.74
2023-01-09T07:48:34.225Z,7.78
2023-01-09T07:51:39.155Z,7.86
2023-01-09T07:54:41.790Z,7.82
2023-01-09T07:57:47.640Z,7.87
2023-01-09T08:00:51.137Z,7.95
2023-01-09T08:03:53.884Z,7.96
2023-01-09T08:06:56.914Z,7.98
2023-01-09T08:09:59.473Z,7.95
2023-01-09T08:13:01.845Z,7.83
2023-01-09T08:16:05.534Z,7.82
2023-01-09T08:19:08.202Z,7.79
2023-01-09T08:22:11.185Z,7.58
2023-01-09T08:25:13.563Z,7.67
2023-01-09T08:28:17.168Z,7.62
2023-01-09T08:31:19.511Z,7.50
2023-01-09T08:34:22.326Z,7.28
2023-01-09T08:37:24.751Z,7.14
2023-01-09T08:40:27.483Z,6.93
2023-01-09T08:43:49.097Z,6.84
2023-01-09T08:47:06.845Z,6.65
2023-01-09T08:50:09.596Z,6.52
2023-01-09T08:53:12.506Z,6.47
2023-01-09T08:56:14.829Z,6.49
2023-01-09T08:59:17.501Z,6.47
2023-01-09T09:02:20.099Z,6.38
2023-01-09T09:05:23.726Z,6.35
2023-01-09T09:08:26.115Z,6.30
2023-01-09T09:11:31.652Z,6.20
2023-01-09T09:14:52.458Z,6.19
2023-01-09T09:17:56.172Z,6.14
2023-01-09T09:20:58.634Z,6.10
2023-01-09T09:24:01.271Z,6.07
2023-01-09T09:27:04.799Z,6.10
2023-01-09T09:30:08.354Z,6.16
2023-01-09T09:33:10.859Z,6.10
2023-01-09T09:36:13.491Z,6.15
2023-01-09T09:39:15.813Z,6.16
2023-01-09T09:42:56.259Z,6.25
2023-01-09T09:46:01.586Z,6.27
2023-01-09T09:49:10.074Z,6.30
2023-01-09T09:52:15.495Z,6.31
2023-01-09T09:55:20.952Z,6.29
2023-01-09T09:58:29.720Z,6.29
2023-01-09T10:01:41.965Z,6.29
2023-01-09T10:04:48.881Z,6.13
2023-01-09T10:07:51.587Z,6.02
2023-01-09T10:10:55.371Z,5.98
2023-01-09T10:14:13.276Z,5.97
2023-01-09T10:17:34.593Z,6.00
2023-01-09T10:20:58.191Z,5.96
2023-01-09T10:24:10.049Z,5.99
2023-01-09T10:27:17.903Z,5.97
2023-01-09T10:30:26.732Z,5.92
2023-01-09T10:33:40.791Z,5.89
2023-01-09T10:36:55.718Z,5.89
2023-01-09T10:40:01.415Z,5.97
2023-01-09T10:43:06.326Z,5.96
2023-01-09T10:46:11.887Z,5.95
2023-01-09T10:49:16.675Z,5.86
2023-01-09T10:52:20.617Z,5.84
2023-01-09T10:55:23.260Z,5.88
2023-01-09T10:58:25.947Z,5.90
2023-01-09T11:01:31.101Z,5.89
2023-01-09T11:04:36.122Z,5.83
2023-01-09T11:07:39.955Z,5.80
2023-01-09T11:10:48.211Z,5.82
2023-01-09T11:14:03.573Z,5.80
2023-01-09T11:17:05.870Z,5.87
2023-01-09T11:20:27.434Z,5.97
2023-01-09T11:23:33.239Z,5.93
2023-01-09T11:26:35.779Z,5.96
2023-01-09T11:29:38.196Z,5.97
2023-01-09T11:32:41.116Z,5.95
2023-01-09T11:36:10.960Z,5.94
2023-01-09T11:39:24.905Z,5.89
2023-01-09T11:42:48.989Z,5.90
2023-01-09T11:46:01.442Z,5.89
2023-01-09T11:49:06.484Z,5.93
2023-01-09T11:52:09.109Z,5.99
2023-01-09T11:55:13.253Z,5.99
2023-01-09T11:58:17.288Z,6.04
2023-01-09T12:01:39.956Z,6.13
2023-01-09T12:05:01.465Z,6.21
2023-01-09T12:08:18.949Z,6.15
2023-01-09T12:11:24.532Z,6.22
2023-01-09T12:14:32.753Z,6.26
2023-01-09T12:17:35.453Z,6.26
2023-01-09T12:20:53.265Z,6.21
2023-01-09T12:24:11.376Z,6.29
2023-01-09T12:27:32.560Z,6.33
2023-01-09T12:30:41.246Z,6.37
2023-01-09T12:34:02.257Z,6.47
2023-01-09T12:37:06.129Z,6.48
2023-01-09T12:40:14.966Z,6.44
2023-01-09T12:43:20.003Z,6.47
2023-01-09T12:46:23.931Z,6.46
2023-01-09T12:49:26.510Z,6.43
2023-01-09T12:52:34.876Z,6.41
2023-01-09T12:55:41.378Z,6.43
2023-01-09T12:58:55.736Z,6.43
2023-01-09T13:02:17.753Z,6.45
2023-01-09T13:05:20.925Z,6.49
2023-01-09T13:08:36.055Z,6.46
2023-01-09T13:11:41.338Z,6.39
2023-01-09T13:15:02.588Z,6.39
2023-01-09T13:18:16.348Z,6.45
2023-01-09T13:21:19.592Z,6.46
2023-01-09T13:24:24.828Z,6.47
2023-01-09T13:27:31.696Z,6.49
2023-01-09T13:30:34.092Z,6.44
2023-01-09T13:33:39.579Z,6.36
2023-01-09T13:36:46.959Z,6.29
2023-01-09T13:39:57.519Z,6.30
2023-01-09T13:43:04.203Z,6.28
2023-01-09T13:46:07.104Z,6.28
2023-01-09T13:49:28.953Z,6.28
2023-01-09T13:52:33.504Z,6.31
2023-01-09T13:55:36.227Z,6.28
2023-01-09T13:58:39.631Z,6.29
2023-01-09T14:01:43.048Z,6.40
2023-01-09T14:04:45.794Z,6.38
2023-01-09T14:08:01.252Z,6.35
2023-01-09T14:11:04.618Z,6.38
2023-01-09T14:14:15.211Z,6.31
2023-01-09T14:17:22.800Z,6.28
2023-01-09T14:20:31.288Z,6.33
2023-01-09T14:23:51.541Z,6.32
2023-01-09T14:26:57.558Z,6.40
2023-01-09T14:30:19.303Z,6.33
2023-01-09T14:33:22.656Z,6.33
2023-01-09T14:36:29.377Z,6.42
2023-01-09T14:39:32.541Z,6.40
2023-01-09T14:42:40.513Z,6.33
2023-01-09T14:45:44.888Z,6.31
2023-01-09T14:48:51.154Z,6.40
2023-01-09T14:51:53.955Z,6.40
2023-01-09T14:55:01.477Z,6.35
2023-01-09T14:58:20.796Z,6.33
2023-01-09T15:01:25.450Z,6.32
2023-01-09T15:04:34.718Z,6.28
2023-01-09T15:07:44.420Z,6.27
2023-01-09T15:10:47.978Z,6.19
2023-01-09T15:13:52.301Z,6.20
2023-01-09T15:16:54.600Z,6.27
2023-01-09T15:19:59.562Z,6.37
2023-01-09T15:23:04.200Z,6.35
2023-01-09T15:26:14.273Z,6.28
2023-01-09T15:29:17.693Z,6.23
2023-01-09T15:32:23.400Z,6.16
2023-01-09T15:35:26.159Z,6.15
2023-01-09T15:38:31.208Z,6.08
2023-01-09T15:41:51.982Z,6.09
2023-01-09T15:44:54.667Z,6.04
2023-01-09T15:48:14.417Z,6.10
2023-01-09T15:51:18.613Z,6.12
2023-01-09T15:54:27.175Z,6.08
2023-01-09T15:57:34.215Z,6.08
2023-01-09T16:00:41.532Z,6.15
2023-01-09T16:03:44.300Z,6.14
2023-01-09T16:06:48.584Z,6.06
2023-01-09T16:09:54.078Z,6.09
2023-01-09T16:12:57.175Z,6.10
2023-01-09T16:16:00.910Z,6.15
2023-01-09T16:19:03.340Z,6.09
2023-01-09T16:22:19.598Z,6.08
2023-01-09T16:25:22.119Z,5.97
2023-01-09T16:28:28.364Z,5.93
2023-01-09T16:31:30.979Z,5.97
2023-01-09T16:34:34.471Z,5.96
2023-01-09T16:37:37.429Z,5.94
2023-01-09T16:40:40.132Z,6.00
2023-01-09T16:43:42.611Z,6.01
2023-01-09T16:46:45.400Z,6.05
2023-01-09T16:49:47.771Z,6.05
2023-01-09T16:52:50.802Z,6.04
2023-01-09T16:55:53.772Z,6.02
2023-01-09T16:58:56.834Z,6.08
2023-01-09T17:01:59.275Z,6.06
2023-01-09T17:05:03.107Z,6.10
2023-01-09T17:08:12.529Z,6.03
2023-01-09T17:11:31.875Z,6.10
2023-01-09T17:14:34.469Z,6.10
2023-01-09T17:17:37.186Z,6.11
2023-01-09T17:20:40.907Z,6.11
2023-01-09T17:23:44.079Z,6.12
2023-01-09T17:27:06.551Z,6.17
2023-01-09T17:30:18.544Z,6.14
2023-01-09T17:33:21.563Z,6.13
2023-01-09T17:36:26.967Z,6.13
2023-01-09T17:39:29.343Z,6.10
2023-01-09T17:42:32.114Z,6.11
2023-01-09T17:45:34.531Z,6.13
2023-01-09T17:48:37.621Z,6.10
2023-01-09T17:51:39.980Z,6.11
2023-01-09T17:54:43.196Z,6.10
2023-01-09T17:57:45.977Z,6.10
2023-01-09T18:00:48.668Z,6.17
2023-01-09T18:03:51.384Z,6.18
2023-01-09T18:06:54.655Z,6.12
2023-01-09T18:09:57.353Z,6.12
2023-01-09T18:12:59.717Z,6.12
2023-01-09T18:16:02.449Z,6.06
2023-01-09T18:19:05.222Z,6.03
2023-01-09T18:22:08.028Z,6.12
2023-01-09T18:25:10.932Z,6.10
2023-01-09T18:28:15.364Z,6.10
2023-01-09T18:31:22.094Z,6.08
2023-01-09T18:34:24.800Z,6.06
2023-01-09T18:37:27.219Z,6.09
2023-01-09T18:40:30.785Z,6.14
2023-01-09T18:43:34.451Z,6.07
2023-01-09T18:46:38.309Z,6.10
2023-01-09T18:49:40.721Z,6.04
2023-01-09T18:52:43.704Z,6.09
2023-01-09T18:55:46.061Z,6.05
2023-01-09T18:58:49.219Z,6.07
2023-01-09T19:01:51.512Z,6.12
2023-01-09T19:04:55.042Z,6.14
2023-01-09T19:07:57.624Z,6.09
2023-01-09T19:11:00.401Z,6.09
2023-01-09T19:14:03.061Z,6.09
2023-01-09T19:17:05.711Z,6.14
2023-01-09T19:20:08.652Z,6.24
2023-01-09T19:23:11.453Z,6.16
2023-01-09T19:26:17.675Z,6.14
2023-01-09T19:29:20.903Z,6.13
2023-01-09T19:32:23.651Z,6.11
2023-01-09T19:35:26.278Z,6.18
2023-01-09T19:38:29.011Z,6.15
2023-01-09T19:41:35.119Z,6.20
2023-01-09T19:44:37.891Z,6.25
2023-01-09T19:47:41.203Z,6.13
2023-01-09T19:50:43.584Z,6.18
2023-01-09T19:53:51.159Z,6.13
2023-01-09T19:56:55.851Z,6.13
2023-01-09T19:59:58.642Z,6.11
2023-01-09T20:03:01.475Z,6.07
2023-01-09T20:06:05.519Z,6.15
2023-01-09T20:09:08.378Z,6.15
2023-01-09T20:12:11.164Z,6.15
2023-01-09T20:15:14.885Z,6.12
2023-01-09T20:18:17.636Z,6.14
2023-01-09T20:24:26.048Z,6.09
2023-01-09T20:27:28.646Z,6.13
2023-01-09T20:30:31.310Z,6.10
2023-01-09T20:33:35.043Z,6.06
2023-01-09T20:36:38.904Z,6.09
2023-01-09T20:39:41.262Z,6.09
2023-01-09T20:42:44.166Z,6.14
2023-01-09T20:45:46.812Z,6.12
2023-01-09T20:48:49.670Z,6.06
2023-01-09T20:51:52.634Z,6.13
2023-01-09T20:54:55.217Z,6.11
2023-01-09T20:57:57.587Z,6.13
2023-01-09T21:01:10.776Z,6.14
2023-01-09T21:04:13.225Z,6.12
2023-01-09T21:07:16.125Z,6.08
2023-01-09T21:10:18.522Z,6.07
2023-01-09T21:13:21.071Z,6.06
2023-01-09T21:16:24.756Z,6.04
2023-01-09T21:19:27.573Z,6.05
2023-01-09T21:22:32.139Z,6.03
2023-01-09T21:25:34.877Z,6.02
2023-01-09T21:28:49.799Z,6.09
2023-01-09T21:31:52.524Z,6.08
2023-01-09T21:34:54.829Z,6.09
2023-01-09T21:37:57.696Z,6.05
2023-01-09T21:41:18.970Z,6.18
2023-01-09T21:44:40.328Z,6.12
2023-01-09T21:47:42.772Z,6.13
2023-01-09T21:50:45.484Z,6.14
2023-01-09T21:53:47.865Z,6.10
2023-01-09T21:56:50.983Z,6.04
2023-01-09T21:59:53.281Z,6.17
2023-01-09T22:02:55.985Z,6.16
2023-01-09T22:06:02.831Z,6.12
2023-01-09T22:09:05.613Z,6.15
2023-01-09T22:12:08.648Z,6.10
2023-01-09T22:15:11.040Z,6.10
2023-01-09T22:18:13.908Z,6.18
2023-01-09T22:21:17.680Z,6.18
2023-01-09T22:24:21.762Z,6.14
2023-01-09T22:27:24.136Z,6.07
2023-01-09T22:30:26.715Z,6.09
2023-01-09T22:33:29.118Z,6.06
2023-01-09T22:36:32.014Z,6.03
2023-01-09T22:39:34.508Z,6.04
2023-01-09T22:42:37.152Z,6.03
2023-01-09T22:45:39.486Z,6.03
2023-01-09T22:48:42.507Z,6.16
2023-01-09T22:51:45.202Z,6.14
2023-01-09T22:54:48.060Z,6.11
2023-01-09T22:57:50.487Z,6.07
2023-01-09T23:00:53.594Z,6.12
2023-01-09T23:03:55.955Z,6.06
2023-01-09T23:06:58.484Z,6.18
2023-01-09T23:10:02.110Z,6.21
2023-01-09T23:13:04.991Z,6.17
2023-01-09T23:16:07.785Z,6.18
2023-01-09T23:19:14.434Z,6.08
2023-01-09T23:22:17.020Z,6.11
2023-01-09T23:25:19.627Z,6.10
2023-01-09T23:28:22.769Z,6.07
2023-01-09T23:31:26.055Z,6.07
2023-01-09T23:34:28.512Z,6.05
2023-01-09T23:37:31.190Z,6.06
2023-01-09T23:40:35.565Z,6.08
2023-01-09T23:43:38.099Z,6.02
2023-01-09T23:46:40.375Z,6.10
2023-01-09T23:49:43.137Z,6.15
2023-01-09T23:52:45.747Z,6.14
2023-01-09T23:55:49.062Z,6.16
2023-01-09T23:58:51.492Z,6.16
